Time;durP1;ratioP1;P1;durP2;ratioP2;P2;SDS_P1;SDS_P2;PMS_P1;PMS_P2;Temp;Humidity;BMP_temperature;BMP_pressure;BME280_temperature;BME280_humidity;BME280_pressure;Samples;Min_cycle;Max_cycle;Signal;HPM_P1;HPM_P2
2022/02/10 00:04:14;;;;;;;4.97;4.40;;;10.00;99.90;;;;;;5049857;28;20953;-53
2022/02/10 00:17:32;;;;;;;4.03;3.73;;;10.20;99.90;;;;;;5065459;28;20432;-53
2022/02/10 00:35:54;;;;;;;5.03;4.63;;;10.20;99.90;;;;;;5048029;28;20602;-51
2022/02/10 00:38:23;;;;;;;4.70;4.40;;;10.20;99.90;;;;;;5062954;28;20420;-53
2022/02/10 00:40:48;;;;;;;5.27;4.87;;;10.20;99.90;;;;;;5049226;28;20412;-48
2022/02/10 00:43:14;;;;;;;5.00;4.60;;;10.10;99.90;;;;;;5057235;28;20844;-54
2022/02/10 00:45:40;;;;;;;5.20;4.80;;;10.00;99.90;;;;;;5052481;28;20182;-55
2022/02/10 00:48:08;;;;;;;5.67;5.17;;;10.00;99.90;;;;;;5059415;28;20671;-54
2022/02/10 00:50:35;;;;;;;4.50;4.20;;;10.00;99.90;;;;;;5066012;28;20184;-52
2022/02/10 00:53:09;;;;;;;4.70;4.30;;;9.90;99.90;;;;;;5049467;28;20961;-51
2022/02/10 00:55:38;;;;;;;5.30;4.90;;;9.90;99.90;;;;;;5068017;28;20560;-54
2022/02/10 00:58:07;;;;;;;4.93;4.50;;;9.90;99.90;;;;;;5048268;28;20468;-51
2022/02/10 01:02:13;;;;;;;4.73;4.23;;;9.80;99.90;;;;;;5067134;28;20427;-53
2022/02/10 01:30:21;;;;;;;5.40;4.90;;;9.70;99.90;;;;;;5062646;28;20566;-53
2022/02/10 01:32:51;;;;;;;5.80;4.27;;;9.60;99.90;;;;;;5053976;28;20464;-51
2022/02/10 01:35:22;;;;;;;4.80;4.40;;;9.60;99.90;;;;;;5072669;28;20469;-52
2022/02/10 01:37:49;;;;;;;4.80;4.40;;;9.60;99.90;;;;;;5058577;28;20766;-52
2022/02/10 01:40:23;;;;;;;5.03;4.53;;;9.60;99.90;;;;;;5061604;28;20540;-59
2022/02/10 02:04:56;;;;;;;4.63;4.23;;;9.30;99.90;;;;;;5048301;28;20903;-55
2022/02/10 02:07:28;;;;;;;5.03;4.30;;;9.30;99.90;;;;;;5051511;28;20441;-54
2022/02/10 02:09:54;;;;;;;4.70;4.30;;;9.20;99.90;;;;;;5052501;28;20566;-53
2022/02/10 02:12:19;;;;;;;4.33;4.03;;;9.10;99.90;;;;;;5058877;28;20947;-55
2022/02/10 02:14:45;;;;;;;5.20;4.73;;;9.10;99.90;;;;;;5067973;28;20444;-54
2022/02/10 02:17:11;;;;;;;4.73;4.33;;;9.20;99.90;;;;;;5065607;28;20195;-55
2022/02/10 02:19:37;;;;;;;5.00;4.67;;;9.20;99.90;;;;;;5057430;28;20182;-56
2022/02/10 02:22:07;;;;;;;4.10;3.80;;;9.20;99.90;;;;;;5050833;28;20178;-55
2022/02/10 02:24:33;;;;;;;4.40;4.03;;;9.10;99.90;;;;;;5050654;28;20435;-51
2022/02/10 02:27:02;;;;;;;5.73;4.50;;;9.10;99.90;;;;;;5055317;28;20447;-59
2022/02/10 02:29:42;;;;;;;5.07;4.40;;;9.10;99.90;;;;;;5058562;28;20509;-53
2022/02/10 02:32:17;;;;;;;4.83;4.43;;;9.10;99.90;;;;;;5060875;28;20444;-55
2022/02/10 02:38:00;;;;;;;4.97;4.60;;;9.10;99.90;;;;;;5050112;28;20435;-50
2022/02/10 03:04:59;;;;;;;6.20;4.23;;;8.90;99.90;;;;;;5065204;28;20423;-58
2022/02/10 03:12:36;;;;;;;4.57;4.17;;;8.80;99.90;;;;;;5055038;28;20248;-55
2022/02/10 03:15:05;;;;;;;4.60;4.20;;;8.80;99.90;;;;;;5052020;28;20468;-52
2022/02/10 03:20:20;;;;;;;4.60;4.00;;;8.80;99.90;;;;;;5054053;28;20432;-53
2022/02/10 04:11:42;;;;;;;4.40;3.93;;;8.90;99.90;;;;;;5047735;28;20198;-50
2022/02/10 04:16:50;;;;;;;4.27;3.90;;;8.90;99.90;;;;;;5053913;28;20495;-55
2022/02/10 04:22:11;;;;;;;3.60;3.40;;;8.90;99.90;;;;;;5050090;28;20412;-54
2022/02/10 04:27:13;;;;;;;3.80;3.50;;;8.90;99.90;;;;;;5049917;28;20456;-56
2022/02/10 04:38:33;;;;;;;3.80;3.50;;;8.90;99.90;;;;;;5019678;28;20478;-60
2022/02/10 04:43:37;;;;;;;3.83;3.53;;;9.00;99.90;;;;;;5049543;28;20449;-55
2022/02/10 04:56:57;;;;;;;3.40;3.10;;;9.00;99.90;;;;;;5051209;28;21057;-52
2022/02/10 05:02:35;;;;;;;3.23;3.03;;;9.00;99.90;;;;;;5052814;28;20835;-58
2022/02/10 05:08:01;;;;;;;3.13;2.93;;;9.00;99.90;;;;;;5048504;28;20867;-52
2022/02/10 05:16:01;;;;;;;3.37;3.07;;;9.00;99.90;;;;;;5052358;28;20473;-54
2022/02/10 05:18:44;;;;;;;3.70;3.40;;;9.00;99.90;;;;;;5054570;28;20698;-53
2022/02/10 05:21:36;;;;;;;3.10;2.90;;;9.00;99.90;;;;;;5055143;28;21022;-53
2022/02/10 05:35:33;;;;;;;3.27;2.97;;;9.00;99.90;;;;;;5053481;28;20433;-53
2022/02/10 05:37:33;;;;;;;3.77;3.47;;;9.00;99.90;;;;;;5040806;28;20898;-55
2022/02/10 05:40:03;;;;;;;3.60;3.30;;;9.00;99.90;;;;;;5067626;28;20438;-53
2022/02/10 05:45:37;;;;;;;3.83;3.50;;;9.00;99.90;;;;;;4994604;28;21186;-54
2022/02/10 05:51:09;;;;;;;2.90;2.70;;;8.80;99.90;;;;;;5061172;28;20443;-55
2022/02/10 05:53:52;;;;;;;3.53;3.23;;;8.80;99.90;;;;;;5052097;28;21236;-56
2022/02/10 06:53:37;;;;;;;4.40;3.77;;;7.40;99.90;;;;;;5050335;28;21306;-53
2022/02/10 07:02:36;;;;;;;5.83;4.10;;;7.40;99.90;;;;;;5048624;28;20918;-54
2022/02/10 07:04:45;;;;;;;4.80;4.30;;;7.40;99.90;;;;;;5051484;28;20432;-52
2022/02/10 08:49:52;;;;;;;8.63;6.83;;;15.70;87.40;;;;;;5048588;28;20443;-54
2022/02/10 08:55:16;;;;;;;7.60;6.90;;;16.50;82.90;;;;;;5050978;28;20509;-53
2022/02/10 08:57:57;;;;;;;7.67;6.90;;;16.90;80.40;;;;;;5054768;28;20435;-55
2022/02/10 09:03:17;;;;;;;7.10;6.50;;;17.80;76.70;;;;;;5044110;28;20541;-57
2022/02/10 09:05:58;;;;;;;7.20;6.60;;;18.10;73.50;;;;;;5049566;28;20435;-57
2022/02/10 09:16:32;;;;;;;5.97;5.47;;;19.40;63.30;;;;;;5061515;28;20469;-56
2022/02/10 10:02:04;;;;;;;4.63;4.23;;;19.30;44.30;;;;;;5064419;28;20439;-56
2022/02/10 10:04:36;;;;;;;4.87;4.50;;;17.90;48.30;;;;;;5064717;28;20420;-56
2022/02/10 10:07:24;;;;;;;6.53;4.37;;;17.70;49.60;;;;;;5055521;28;20957;-51
2022/02/10 10:10:26;;;;;;;4.40;4.10;;;18.10;50.20;;;;;;5054473;28;20444;-49
2022/02/10 10:52:40;;;;;;;4.90;4.50;;;15.20;53.00;;;;;;5044270;28;20515;-54
2022/02/10 10:57:52;;;;;;;4.70;4.40;;;14.70;53.60;;;;;;5045471;28;20439;-53
2022/02/10 11:42:10;;;;;;;4.70;4.40;;;14.10;55.90;;;;;;5012537;28;20423;-55
2022/02/10 14:12:35;;;;;;;9.60;8.70;;;10.70;90.90;;;;;;5067113;28;20903;-60
2022/02/10 14:14:52;;;;;;;9.47;8.60;;;10.60;91.50;;;;;;5064318;28;20444;-55
2022/02/10 14:17:29;;;;;;;10.80;9.70;;;10.50;92.90;;;;;;5049451;28;20494;-55
2022/02/10 14:19:59;;;;;;;9.87;8.97;;;10.40;93.30;;;;;;5048753;28;20420;-54
2022/02/10 14:22:38;;;;;;;11.03;9.63;;;10.40;93.70;;;;;;5049828;28;20800;-55
2022/02/10 14:27:48;;;;;;;10.33;9.23;;;10.50;94.50;;;;;;5063429;28;21395;-53
2022/02/10 14:30:15;;;;;;;10.60;9.50;;;10.40;94.30;;;;;;5063683;28;20409;-52
2022/02/10 14:32:44;;;;;;;10.47;9.30;;;10.30;94.80;;;;;;5070132;28;20174;-55
2022/02/10 15:16:35;;;;;;;13.53;12.10;;;9.70;99.90;;;;;;5030566;28;20456;-53
2022/02/10 15:31:08;;;;;;;13.33;11.93;;;9.60;99.90;;;;;;5061657;28;20424;-52
2022/02/10 16:18:30;;;;;;;16.40;12.50;;;9.20;99.90;;;;;;5068201;28;20561;-54
2022/02/10 16:21:01;;;;;;;16.47;11.87;;;9.20;99.90;;;;;;5056171;28;20481;-54
2022/02/10 16:23:30;;;;;;;16.33;12.60;;;9.20;99.90;;;;;;5043422;28;20440;-53
2022/02/10 16:26:11;;;;;;;17.80;13.13;;;9.20;99.90;;;;;;5049291;28;20548;-55
2022/02/10 16:28:40;;;;;;;15.73;12.50;;;9.30;99.90;;;;;;5045786;28;20436;-56
2022/02/10 16:31:06;;;;;;;14.57;12.20;;;9.20;99.90;;;;;;5049211;28;20425;-56
2022/02/10 16:33:33;;;;;;;14.60;13.07;;;9.20;99.90;;;;;;5046752;28;20510;-56
2022/02/10 16:36:00;;;;;;;15.00;13.13;;;9.20;99.90;;;;;;5048529;28;20479;-53
2022/02/10 16:38:27;;;;;;;14.97;13.03;;;9.20;99.90;;;;;;5047750;28;20437;-54
2022/02/10 16:40:55;;;;;;;14.50;12.40;;;9.30;99.90;;;;;;5047694;28;20440;-57
2022/02/10 16:43:21;;;;;;;12.67;11.40;;;9.30;99.90;;;;;;5051302;28;20425;-56
2022/02/10 16:45:46;;;;;;;17.77;13.13;;;9.30;99.90;;;;;;5051683;28;20559;-57
2022/02/10 16:48:12;;;;;;;16.33;13.70;;;9.30;99.90;;;;;;5064915;28;20456;-58
2022/02/10 16:50:43;;;;;;;15.17;12.20;;;9.20;99.90;;;;;;5059411;28;20189;-53
2022/02/10 16:53:11;;;;;;;16.00;12.70;;;9.10;99.90;;;;;;5051897;28;20672;-55
2022/02/10 16:55:47;;;;;;;14.07;12.37;;;9.10;99.90;;;;;;5053933;28;20486;-56
2022/02/10 16:58:30;;;;;;;17.70;13.50;;;9.10;99.90;;;;;;5058812;28;20985;-57
2022/02/10 17:01:13;;;;;;;14.00;12.50;;;9.10;99.90;;;;;;5045059;28;20964;-55
2022/02/10 17:04:19;;;;;;;16.30;13.37;;;9.10;99.90;;;;;;5044225;28;20522;-57
2022/02/10 17:15:40;;;;;;;16.10;13.50;;;9.10;99.90;;;;;;5052407;28;20787;-60
2022/02/10 17:17:59;;;;;;;16.47;12.80;;;9.10;99.90;;;;;;5051943;28;20480;-59
2022/02/10 17:20:44;;;;;;;16.77;13.00;;;9.10;99.90;;;;;;5058504;28;20428;-54
2022/02/10 17:28:40;;;;;;;15.83;13.20;;;9.10;99.90;;;;;;5052331;28;20485;-55
2022/02/10 17:44:50;;;;;;;16.73;12.93;;;9.00;99.90;;;;;;5060525;28;20437;-53
2022/02/10 17:52:58;;;;;;;14.37;12.27;;;9.10;99.90;;;;;;5050299;28;20475;-58
2022/02/10 17:55:24;;;;;;;14.57;11.90;;;9.10;99.90;;;;;;5050126;28;20416;-54
2022/02/10 17:57:50;;;;;;;15.53;12.70;;;9.00;99.90;;;;;;5048932;28;20519;-52
2022/02/10 18:00:17;;;;;;;16.57;13.00;;;9.00;99.90;;;;;;5044126;28;20184;-56
2022/02/10 18:02:44;;;;;;;13.77;12.27;;;9.00;99.90;;;;;;5045840;28;20179;-54
2022/02/10 18:05:21;;;;;;;16.37;12.20;;;8.90;99.90;;;;;;5054528;28;20666;-56
2022/02/10 18:07:50;;;;;;;14.07;12.17;;;9.00;99.90;;;;;;5051371;28;20428;-56
2022/02/10 18:13:22;;;;;;;17.60;12.70;;;9.00;99.90;;;;;;5029303;28;20405;-52
2022/02/10 18:15:53;;;;;;;14.90;11.43;;;8.90;99.90;;;;;;5047034;28;20928;-56
2022/02/10 18:18:25;;;;;;;12.70;11.40;;;8.90;99.90;;;;;;5050704;28;20531;-57
2022/02/10 18:20:59;;;;;;;14.00;11.10;;;8.90;99.90;;;;;;5049326;28;20437;-55
2022/02/10 18:23:34;;;;;;;13.37;11.33;;;8.80;99.90;;;;;;5049131;28;21211;-55
2022/02/10 18:28:32;;;;;;;13.30;11.90;;;8.80;99.90;;;;;;5053195;28;20412;-55
2022/02/10 19:07:53;;;;;;;14.97;11.57;;;8.80;99.90;;;;;;5051419;28;20434;-52
2022/02/10 19:10:25;;;;;;;15.90;11.97;;;8.80;99.90;;;;;;5048851;28;20421;-52
2022/02/10 19:12:55;;;;;;;14.23;11.43;;;8.80;99.90;;;;;;5045745;28;20428;-56
2022/02/10 19:15:24;;;;;;;14.07;12.57;;;8.80;99.90;;;;;;5034910;28;20435;-55
2022/02/10 19:17:52;;;;;;;14.33;11.97;;;8.80;99.90;;;;;;5037609;28;20448;-52
2022/02/10 19:20:23;;;;;;;13.47;12.00;;;8.90;99.90;;;;;;5041722;28;20426;-54
2022/02/10 19:22:49;;;;;;;13.73;12.30;;;8.80;99.90;;;;;;5043110;28;20428;-57
2022/02/10 19:25:16;;;;;;;15.17;13.30;;;8.80;99.90;;;;;;5048760;28;20408;-53
2022/02/10 19:27:43;;;;;;;16.70;13.47;;;8.80;99.90;;;;;;5049207;28;20459;-55
2022/02/10 19:30:11;;;;;;;14.23;12.67;;;8.80;99.90;;;;;;5052064;28;20416;-54
2022/02/10 19:32:39;;;;;;;18.10;12.40;;;8.90;99.90;;;;;;5047267;28;20428;-56
2022/02/10 19:35:06;;;;;;;15.80;12.50;;;8.70;99.90;;;;;;5049207;28;20412;-56
2022/02/10 19:37:32;;;;;;;16.67;12.50;;;8.60;99.90;;;;;;5052641;28;20489;-55
2022/02/10 19:40:01;;;;;;;13.63;12.20;;;8.60;99.90;;;;;;5050996;28;20839;-57
2022/02/10 19:42:33;;;;;;;14.70;12.70;;;8.60;99.90;;;;;;5049282;28;20182;-57
2022/02/10 19:45:00;;;;;;;16.03;12.57;;;8.60;99.90;;;;;;5037360;28;20434;-58
2022/02/10 19:47:31;;;;;;;15.90;12.90;;;8.50;99.90;;;;;;5030577;28;20484;-52
2022/02/10 19:49:58;;;;;;;18.97;12.90;;;8.50;99.90;;;;;;5049423;28;20447;-53
2022/02/10 19:52:25;;;;;;;18.73;14.67;;;8.40;99.90;;;;;;5051200;28;20472;-57
2022/02/10 19:54:53;;;;;;;16.90;13.90;;;8.40;99.90;;;;;;5047609;28;20467;-57
2022/02/10 19:57:22;;;;;;;17.57;13.57;;;8.30;99.90;;;;;;5050000;28;20432;-55
2022/02/10 19:59:47;;;;;;;18.50;13.47;;;8.30;99.90;;;;;;5045407;28;20491;-54
2022/02/10 20:02:16;;;;;;;19.20;15.33;;;8.20;99.90;;;;;;5049397;28;20927;-56
2022/02/10 20:04:41;;;;;;;16.13;13.50;;;8.30;99.90;;;;;;5049037;28;20174;-55
2022/02/10 20:07:08;;;;;;;17.73;14.40;;;8.20;99.90;;;;;;5047872;28;20967;-55
2022/02/10 20:09:33;;;;;;;19.70;14.63;;;8.10;99.90;;;;;;5051262;28;20619;-57
2022/02/10 20:11:59;;;;;;;19.77;14.00;;;8.10;99.90;;;;;;5050785;28;20463;-54
2022/02/10 20:14:25;;;;;;;17.63;14.33;;;8.00;99.90;;;;;;5047734;28;20182;-55
2022/02/10 20:16:54;;;;;;;20.40;15.60;;;8.00;99.90;;;;;;5043557;28;20402;-56
2022/02/10 20:19:20;;;;;;;17.73;13.97;;;8.00;99.90;;;;;;5047513;28;20949;-54
2022/02/10 20:21:45;;;;;;;19.40;14.57;;;8.10;99.90;;;;;;5048004;28;20496;-56
2022/02/10 20:24:11;;;;;;;19.83;13.80;;;8.10;99.90;;;;;;5051090;28;20413;-57
2022/02/10 20:26:37;;;;;;;20.10;15.40;;;8.10;99.90;;;;;;5047978;28;20204;-56
2022/02/10 20:29:03;;;;;;;21.93;15.40;;;8.10;99.90;;;;;;5048082;28;20174;-55
2022/02/10 20:31:30;;;;;;;21.60;15.67;;;8.00;99.90;;;;;;5047006;28;20930;-54
2022/02/10 20:33:56;;;;;;;16.70;14.00;;;7.90;99.90;;;;;;5048013;28;20170;-54
2022/02/10 20:36:22;;;;;;;18.90;15.77;;;7.90;99.90;;;;;;5049217;28;20409;-57
2022/02/10 20:38:51;;;;;;;19.77;15.00;;;7.90;99.90;;;;;;5048543;28;20939;-57
2022/02/10 20:41:18;;;;;;;20.13;16.00;;;7.80;99.90;;;;;;5062066;28;20177;-53
2022/02/10 20:43:48;;;;;;;19.07;15.23;;;7.90;99.90;;;;;;5061327;28;20907;-57
2022/02/10 20:46:17;;;;;;;19.97;15.13;;;7.90;99.90;;;;;;5044383;28;20468;-53
2022/02/10 20:48:43;;;;;;;21.47;15.53;;;7.80;99.90;;;;;;5029866;28;20851;-55
2022/02/10 20:51:13;;;;;;;19.40;15.73;;;7.80;99.90;;;;;;5042050;28;20927;-52
2022/02/10 20:53:41;;;;;;;19.70;14.97;;;7.80;99.90;;;;;;5055768;28;20526;-56
2022/02/10 20:56:09;;;;;;;24.20;16.77;;;7.80;99.90;;;;;;5030931;28;20999;-55
2022/02/10 20:58:36;;;;;;;21.97;16.50;;;7.80;99.90;;;;;;5031108;28;20448;-56
2022/02/10 21:01:03;;;;;;;20.10;15.48;;;7.90;99.90;;;;;;5033131;28;20520;-55
2022/02/10 21:03:32;;;;;;;16.93;14.53;;;7.90;99.90;;;;;;5034212;28;20183;-49
2022/02/10 21:06:09;;;;;;;18.20;15.40;;;7.90;99.90;;;;;;5030857;28;20468;-55
2022/02/10 21:08:55;;;;;;;21.33;16.30;;;7.90;99.90;;;;;;5040557;28;20425;-54
2022/02/10 21:11:24;;;;;;;17.43;15.00;;;7.90;99.90;;;;;;5040028;28;20419;-53
2022/02/10 21:13:50;;;;;;;17.60;14.30;;;7.90;99.90;;;;;;5046185;28;20433;-59
2022/02/10 21:16:16;;;;;;;20.40;15.70;;;7.90;99.90;;;;;;5049237;28;20413;-57
2022/02/10 21:18:43;;;;;;;17.43;13.83;;;7.80;99.90;;;;;;5047551;28;20550;-53
2022/02/10 21:21:14;;;;;;;18.70;13.50;;;7.80;99.90;;;;;;5049565;28;20419;-56
2022/02/10 21:26:20;;;;;;;16.80;13.50;;;7.80;99.90;;;;;;5062904;28;20470;-54
2022/02/10 21:28:47;;;;;;;18.60;14.93;;;7.90;99.90;;;;;;5072116;28;20833;-55
2022/02/10 21:31:13;;;;;;;21.37;14.20;;;7.90;99.90;;;;;;5058533;28;20450;-56
2022/02/10 21:56:06;;;;;;;20.63;15.23;;;7.50;99.90;;;;;;5061545;28;20420;-52
2022/02/10 22:03:31;;;;;;;23.70;14.50;;;7.50;99.90;;;;;;5065468;28;20763;-54
2022/02/10 22:16:29;;;;;;;16.93;13.17;;;7.40;99.90;;;;;;5071870;28;20406;-57
2022/02/10 22:19:07;;;;;;;16.17;12.83;;;7.50;99.90;;;;;;5044492;28;20424;-59
2022/02/10 22:21:38;;;;;;;15.97;12.70;;;7.50;99.90;;;;;;5057620;28;20423;-57
2022/02/10 22:24:08;;;;;;;16.33;13.35;;;7.50;99.90;;;;;;5072291;28;20480;-54
2022/02/10 22:26:34;;;;;;;17.70;12.40;;;7.50;99.90;;;;;;5071926;28;20209;-63
2022/02/10 22:34:21;;;;;;;17.23;13.33;;;7.50;99.90;;;;;;5064361;28;20234;-55
2022/02/10 22:36:54;;;;;;;13.77;11.60;;;7.50;99.90;;;;;;5052031;28;20929;-54
2022/02/10 22:39:19;;;;;;;16.37;11.97;;;7.60;99.90;;;;;;5051207;28;20823;-55
2022/02/10 22:41:46;;;;;;;16.13;12.50;;;7.70;99.90;;;;;;5055955;28;20428;-53
2022/02/10 22:44:12;;;;;;;14.43;11.47;;;7.50;99.90;;;;;;5058505;28;20424;-53
2022/02/10 22:46:38;;;;;;;13.40;10.93;;;7.40;99.90;;;;;;5061210;28;20472;-52
2022/02/10 22:49:05;;;;;;;14.63;11.73;;;7.40;99.90;;;;;;5050562;28;20440;-52
2022/02/10 22:51:32;;;;;;;13.47;11.53;;;7.50;99.90;;;;;;5064764;28;20468;-54
2022/02/10 22:53:58;;;;;;;14.97;12.20;;;7.50;99.90;;;;;;5061261;28;20456;-54
2022/02/10 22:56:28;;;;;;;16.00;12.63;;;7.40;99.90;;;;;;5067540;28;20420;-53
2022/02/10 22:58:57;;;;;;;16.77;12.27;;;7.40;99.90;;;;;;5061195;28;20421;-55
2022/02/10 23:01:23;;;;;;;16.53;11.90;;;7.40;99.90;;;;;;5043484;28;20422;-53
2022/02/10 23:03:49;;;;;;;17.90;13.57;;;7.40;99.90;;;;;;5047123;28;20482;-52
2022/02/10 23:06:16;;;;;;;16.57;13.17;;;7.40;99.90;;;;;;5051448;28;20484;-51
2022/02/10 23:08:41;;;;;;;16.97;14.20;;;7.40;99.90;;;;;;5051381;28;20962;-55
2022/02/10 23:11:10;;;;;;;15.27;12.90;;;7.40;99.90;;;;;;5051270;28;20420;-56
2022/02/10 23:13:36;;;;;;;14.77;12.40;;;7.40;99.90;;;;;;5051465;28;20154;-54
2022/02/10 23:16:04;;;;;;;17.43;12.70;;;7.30;99.90;;;;;;5050519;28;20435;-56
2022/02/10 23:18:32;;;;;;;17.07;13.40;;;7.40;99.90;;;;;;5051135;28;20320;-51
2022/02/10 23:21:00;;;;;;;16.80;13.50;;;7.30;99.90;;;;;;5056209;28;20523;-54
2022/02/10 23:23:28;;;;;;;16.83;13.20;;;7.30;99.90;;;;;;5066977;28;20408;-55
2022/02/10 23:25:54;;;;;;;17.57;13.37;;;7.20;99.90;;;;;;5051000;28;20460;-53
2022/02/10 23:28:28;;;;;;;17.73;14.37;;;7.20;99.90;;;;;;5069687;28;20466;-52
2022/02/10 23:30:54;;;;;;;16.73;12.87;;;7.20;99.90;;;;;;5057357;28;20433;-52
2022/02/10 23:33:28;;;;;;;17.93;12.87;;;7.20;99.90;;;;;;5051422;28;20505;-54
2022/02/10 23:38:47;;;;;;;11.10;8.40;;;7.10;99.90;;;;;;5065875;28;20785;-53
2022/02/10 23:44:24;;;;;;;11.15;6.47;;;6.60;99.90;;;;;;5015773;28;20609;-54
2022/02/10 23:46:49;;;;;;;9.65;6.65;;;6.40;99.90;;;;;;5049546;28;20592;-52
2022/02/10 23:49:19;;;;;;;8.33;6.10;;;6.20;99.90;;;;;;5047993;28;20171;-53
2022/02/10 23:52:06;;;;;;;9.65;5.82;;;6.00;99.90;;;;;;5049687;28;20665;-54
2022/02/10 23:54:37;;;;;;;9.60;6.10;;;5.80;99.90;;;;;;5050644;28;20181;-51
2022/02/10 23:57:15;;;;;;;6.90;5.93;;;5.70;99.90;;;;;;5050377;28;20182;-55
